METAR Data
IDs: Format: Raw Decoded Include TAF

Data at: 0013 UTC 19 Dec 2018

METAR for:KDLZ (Delaware Muni, OH, US)
Text:KDLZ 182355Z AUTO 00000KT 10SM CLR 00/M02 A3016 RMK AO2
Temperature: 0.0°C ( 32°F)
Dewpoint: -2.0°C ( 28°F) [RH = 86%]
Pressure (altimeter):30.16 inches Hg (1021.4 mb)
Winds:calm
Visibility:10 or more sm (16+ km)
Ceiling:at least 12,000 feet AGL
Clouds:sky clear below 12,000 feet AGL
QC Flag:automated observation with no human augmentation